sensor_id;sensor_type;location;lat;lon;timestamp;pressure;altitude;pressure_sealevel;temperature;humidity
76605;BME280;65496;50.978;16.998;2023-04-03T00:00:31;100960.09;;;21.71;33.43
76605;BME280;65496;50.978;16.998;2023-04-03T00:03:14;100961.69;;;21.72;33.88
76605;BME280;65496;50.978;16.998;2023-04-03T00:05:40;100955.38;;;21.71;33.86
76605;BME280;65496;50.978;16.998;2023-04-03T00:08:07;100953.31;;;21.68;33.85
76605;BME280;65496;50.978;16.998;2023-04-03T00:10:36;100967.22;;;21.72;33.79
76605;BME280;65496;50.978;16.998;2023-04-03T00:13:05;100961.56;;;21.68;33.84
76605;BME280;65496;50.978;16.998;2023-04-03T00:15:32;100964.47;;;21.72;33.95
76605;BME280;65496;50.978;16.998;2023-04-03T00:17:59;100966.41;;;21.71;33.90
76605;BME280;65496;50.978;16.998;2023-04-03T00:20:26;100969.97;;;21.72;33.85
76605;BME280;65496;50.978;16.998;2023-04-03T00:22:53;100975.47;;;21.72;34.13
76605;BME280;65496;50.978;16.998;2023-04-03T00:25:19;100975.34;;;21.68;34.15
76605;BME280;65496;50.978;16.998;2023-04-03T00:27:46;100981.00;;;21.72;33.91
76605;BME280;65496;50.978;16.998;2023-04-03T00:30:15;100973.88;;;21.71;33.86
76605;BME280;65496;50.978;16.998;2023-04-03T00:32:41;100974.22;;;21.69;33.68
76605;BME280;65496;50.978;16.998;2023-04-03T00:35:08;100982.13;;;21.71;33.80
76605;BME280;65496;50.978;16.998;2023-04-03T00:37:35;100973.88;;;21.71;33.64
76605;BME280;65496;50.978;16.998;2023-04-03T00:40:03;100971.09;;;21.71;33.78
76605;BME280;65496;50.978;16.998;2023-04-03T00:42:29;100978.56;;;21.70;33.73
76605;BME280;65496;50.978;16.998;2023-04-03T00:47:23;100966.97;;;21.65;34.02
76605;BME280;65496;50.978;16.998;2023-04-03T00:49:50;100977.78;;;21.70;34.01
76605;BME280;65496;50.978;16.998;2023-04-03T00:52:21;100974.22;;;21.69;33.91
76605;BME280;65496;50.978;16.998;2023-04-03T00:54:52;100973.41;;;21.69;33.63
76605;BME280;65496;50.978;16.998;2023-04-03T00:57:21;100972.59;;;21.68;33.72
76605;BME280;65496;50.978;16.998;2023-04-03T00:59:51;100976.16;;;21.69;33.70
76605;BME280;65496;50.978;16.998;2023-04-03T01:02:17;100982.50;;;21.69;33.81
76605;BME280;65496;50.978;16.998;2023-04-03T01:04:44;100982.00;;;21.67;33.71
76605;BME280;65496;50.978;16.998;2023-04-03T01:07:16;100978.91;;;21.69;33.61
76605;BME280;65496;50.978;16.998;2023-04-03T01:09:45;100972.59;;;21.68;33.80
76605;BME280;65496;50.978;16.998;2023-04-03T01:12:19;100984.44;;;21.69;33.69
76605;BME280;65496;50.978;16.998;2023-04-03T01:14:50;100983.94;;;21.67;33.76
76605;BME280;65496;50.978;16.998;2023-04-03T01:17:30;100993.03;;;21.67;33.66
76605;BME280;65496;50.978;16.998;2023-04-03T01:25:52;100992.56;;;21.65;33.67
76605;BME280;65496;50.978;16.998;2023-04-03T01:28:22;100996.16;;;21.66;33.57
76605;BME280;65496;50.978;16.998;2023-04-03T01:33:29;101006.34;;;21.65;33.61
76605;BME280;65496;50.978;16.998;2023-04-03T01:35:56;101002.78;;;21.65;33.70
76605;BME280;65496;50.978;16.998;2023-04-03T01:38:22;100995.19;;;21.62;33.69
76605;BME280;65496;50.978;16.998;2023-04-03T01:40:48;101008.31;;;21.65;33.66
76605;BME280;65496;50.978;16.998;2023-04-03T01:43:14;101007.38;;;21.61;33.62
76605;BME280;65496;50.978;16.998;2023-04-03T01:45:41;101008.63;;;21.63;33.90
76605;BME280;65496;50.978;16.998;2023-04-03T01:48:06;101009.78;;;21.62;33.49
76605;BME280;65496;50.978;16.998;2023-04-03T01:50:33;101001.84;;;21.61;33.62
76605;BME280;65496;50.978;16.998;2023-04-03T01:52:59;101014.50;;;21.62;33.74
76605;BME280;65496;50.978;16.998;2023-04-03T01:55:25;101014.13;;;21.63;33.83
76605;BME280;65496;50.978;16.998;2023-04-03T01:57:51;101008.19;;;21.61;33.43
76605;BME280;65496;50.978;16.998;2023-04-03T02:00:19;101018.06;;;21.62;33.65
76605;BME280;65496;50.978;16.998;2023-04-03T02:02:45;101010.56;;;21.63;33.65
76605;BME280;65496;50.978;16.998;2023-04-03T02:05:11;101024.34;;;21.63;33.76
76605;BME280;65496;50.978;16.998;2023-04-03T02:07:37;101015.31;;;21.62;33.51
76605;BME280;65496;50.978;16.998;2023-04-03T02:10:05;101014.94;;;21.64;33.50
76605;BME280;65496;50.978;16.998;2023-04-03T02:12:31;101018.84;;;21.63;33.60
76605;BME280;65496;50.978;16.998;2023-04-03T02:14:58;101019.66;;;21.63;33.62
76605;BME280;65496;50.978;16.998;2023-04-03T02:17:24;101020.81;;;21.62;33.64
76605;BME280;65496;50.978;16.998;2023-04-03T02:19:52;101015.31;;;21.62;33.58
76605;BME280;65496;50.978;16.998;2023-04-03T02:22:21;101023.56;;;21.62;33.52
76605;BME280;65496;50.978;16.998;2023-04-03T02:24:47;101025.53;;;21.62;33.56
76605;BME280;65496;50.978;16.998;2023-04-03T02:27:13;101021.94;;;21.61;33.64
76605;BME280;65496;50.978;16.998;2023-04-03T02:29:41;101029.09;;;21.62;33.49
76605;BME280;65496;50.978;16.998;2023-04-03T02:32:08;101026.31;;;21.62;33.45
76605;BME280;65496;50.978;16.998;2023-04-03T02:34:35;101021.00;;;21.57;33.50
76605;BME280;65496;50.978;16.998;2023-04-03T02:37:02;101028.28;;;21.62;33.66
76605;BME280;65496;50.978;16.998;2023-04-03T02:39:28;101029.88;;;21.63;33.57
76605;BME280;65496;50.978;16.998;2023-04-03T02:41:56;101035.38;;;21.63;33.48
76605;BME280;65496;50.978;16.998;2023-04-03T02:44:22;101032.97;;;21.61;33.57
76605;BME280;65496;50.978;16.998;2023-04-03T02:46:50;101033.66;;;21.58;33.51
76605;BME280;65496;50.978;16.998;2023-04-03T02:49:17;101037.69;;;21.61;33.31
76605;BME280;65496;50.978;16.998;2023-04-03T02:51:43;101027.06;;;21.51;33.32
76605;BME280;65496;50.978;16.998;2023-04-03T02:54:09;101032.16;;;21.61;33.33
76605;BME280;65496;50.978;16.998;2023-04-03T02:56:35;101036.28;;;21.55;33.58
76605;BME280;65496;50.978;16.998;2023-04-03T02:59:02;101044.31;;;21.60;33.60
76605;BME280;65496;50.978;16.998;2023-04-03T03:01:27;101046.28;;;21.59;33.42
76605;BME280;65496;50.978;16.998;2023-04-03T03:03:58;101043.50;;;21.59;32.90
76605;BME280;65496;50.978;16.998;2023-04-03T03:06:24;101047.88;;;21.60;33.47
76605;BME280;65496;50.978;16.998;2023-04-03T03:08:50;101041.56;;;21.60;33.50
76605;BME280;65496;50.978;16.998;2023-04-03T03:11:17;101041.56;;;21.60;33.30
76605;BME280;65496;50.978;16.998;2023-04-03T03:13:43;101043.19;;;21.61;33.50
76605;BME280;65496;50.978;16.998;2023-04-03T03:16:09;101039.28;;;21.62;33.43
76605;BME280;65496;50.978;16.998;2023-04-03T03:18:36;101043.19;;;21.61;33.73
76605;BME280;65496;50.978;16.998;2023-04-03T03:21:03;101052.59;;;21.60;33.60
76605;BME280;65496;50.978;16.998;2023-04-03T03:23:31;101053.72;;;21.59;33.39
76605;BME280;65496;50.978;16.998;2023-04-03T03:26:07;101050.97;;;21.59;33.31
76605;BME280;65496;50.978;16.998;2023-04-03T03:28:34;101059.25;;;21.59;33.54
76605;BME280;65496;50.978;16.998;2023-04-03T03:31:02;101055.69;;;21.58;33.50
76605;BME280;65496;50.978;16.998;2023-04-03T03:33:28;101058.47;;;21.58;33.54
76605;BME280;65496;50.978;16.998;2023-04-03T03:35:57;101056.47;;;21.59;33.39
76605;BME280;65496;50.978;16.998;2023-04-03T03:38:23;101059.25;;;21.59;33.42
76605;BME280;65496;50.978;16.998;2023-04-03T03:40:50;101058.47;;;21.58;33.48
76605;BME280;65496;50.978;16.998;2023-04-03T03:43:17;101058.47;;;21.58;33.38
76605;BME280;65496;50.978;16.998;2023-04-03T03:45:44;101067.06;;;21.57;33.52
76605;BME280;65496;50.978;16.998;2023-04-03T03:48:11;101064.28;;;21.57;33.50
76605;BME280;65496;50.978;16.998;2023-04-03T03:50:37;101071.44;;;21.58;33.34
76605;BME280;65496;50.978;16.998;2023-04-03T03:53:05;101069.81;;;21.57;33.44
76605;BME280;65496;50.978;16.998;2023-04-03T03:55:31;101064.47;;;21.52;33.33
76605;BME280;65496;50.978;16.998;2023-04-03T03:57:58;101070.94;;;21.56;33.51
76605;BME280;65496;50.978;16.998;2023-04-03T04:00:25;101068.19;;;21.56;33.31
76605;BME280;65496;50.978;16.998;2023-04-03T04:02:51;101074.84;;;21.55;33.51
76605;BME280;65496;50.978;16.998;2023-04-03T04:05:17;101061.88;;;21.55;33.34
76605;BME280;65496;50.978;16.998;2023-04-03T04:07:44;101075.31;;;21.57;33.42
76605;BME280;65496;50.978;16.998;2023-04-03T04:10:10;101073.69;;;21.56;33.46
76605;BME280;65496;50.978;16.998;2023-04-03T04:12:36;101078.41;;;21.55;33.35
76605;BME280;65496;50.978;16.998;2023-04-03T04:15:03;101083.91;;;21.55;33.34
76605;BME280;65496;50.978;16.998;2023-04-03T04:17:29;101083.13;;;21.55;33.22
76605;BME280;65496;50.978;16.998;2023-04-03T04:19:57;101088.63;;;21.55;33.35
76605;BME280;65496;50.978;16.998;2023-04-03T04:22:24;101091.41;;;21.55;33.01
76605;BME280;65496;50.978;16.998;2023-04-03T04:24:50;101091.41;;;21.55;33.10
76605;BME280;65496;50.978;16.998;2023-04-03T04:27:17;101088.63;;;21.55;33.06
76605;BME280;65496;50.978;16.998;2023-04-03T04:29:44;101104.00;;;21.56;32.99
76605;BME280;65496;50.978;16.998;2023-04-03T04:32:10;101105.63;;;21.57;33.15
76605;BME280;65496;50.978;16.998;2023-04-03T04:34:37;101106.44;;;21.57;32.99
76605;BME280;65496;50.978;16.998;2023-04-03T04:37:03;101105.94;;;21.55;33.01
76605;BME280;65496;50.978;16.998;2023-04-03T04:39:29;101107.25;;;21.58;33.06
76605;BME280;65496;50.978;16.998;2023-04-03T04:41:55;101115.50;;;21.58;32.83
76605;BME280;65496;50.978;16.998;2023-04-03T04:44:21;101112.75;;;21.58;32.68
76605;BME280;65496;50.978;16.998;2023-04-03T04:46:47;101111.81;;;21.54;32.90
76605;BME280;65496;50.978;16.998;2023-04-03T04:49:13;101116.19;;;21.55;32.84
76605;BME280;65496;50.978;16.998;2023-04-03T04:51:39;101119.72;;;21.55;32.81
76605;BME280;65496;50.978;16.998;2023-04-03T04:54:05;101112.63;;;21.54;32.90
76605;BME280;65496;50.978;16.998;2023-04-03T04:56:31;101124.47;;;21.55;33.09
76605;BME280;65496;50.978;16.998;2023-04-03T04:58:57;101116.19;;;21.55;33.01
76605;BME280;65496;50.978;16.998;2023-04-03T05:01:23;101116.97;;;21.55;32.97
76605;BME280;65496;50.978;16.998;2023-04-03T05:03:49;101127.22;;;21.55;33.02
76605;BME280;65496;50.978;16.998;2023-04-03T05:06:15;101113.63;;;21.50;32.96
76605;BME280;65496;50.978;16.998;2023-04-03T05:08:41;101111.88;;;21.45;32.96
76605;BME280;65496;50.978;16.998;2023-04-03T05:11:07;101127.22;;;21.55;33.15
76605;BME280;65496;50.978;16.998;2023-04-03T05:13:33;101125.25;;;21.55;33.06
76605;BME280;65496;50.978;16.998;2023-04-03T05:15:59;101127.22;;;21.55;32.84
76605;BME280;65496;50.978;16.998;2023-04-03T05:18:25;101137.44;;;21.54;32.95
76605;BME280;65496;50.978;16.998;2023-04-03T05:20:51;101139.38;;;21.54;32.90
76605;BME280;65496;50.978;16.998;2023-04-03T05:23:17;101142.13;;;21.54;33.06
76605;BME280;65496;50.978;16.998;2023-04-03T05:25:44;101141.78;;;21.55;32.81
76605;BME280;65496;50.978;16.998;2023-04-03T05:28:12;101151.53;;;21.53;32.73
76605;BME280;65496;50.978;16.998;2023-04-03T05:30:39;101151.53;;;21.53;32.92
76605;BME280;65496;50.978;16.998;2023-04-03T05:33:05;101149.25;;;21.55;32.89
76605;BME280;65496;50.978;16.998;2023-04-03T05:35:31;101146.50;;;21.55;32.87
76605;BME280;65496;50.978;16.998;2023-04-03T05:37:58;101152.78;;;21.55;32.73
76605;BME280;65496;50.978;16.998;2023-04-03T05:40:23;101149.25;;;21.55;32.83
76605;BME280;65496;50.978;16.998;2023-04-03T05:42:49;101154.78;;;21.55;32.86
76605;BME280;65496;50.978;16.998;2023-04-03T05:45:15;101160.28;;;21.55;33.04
76605;BME280;65496;50.978;16.998;2023-04-03T05:47:42;101161.06;;;21.55;32.97
76605;BME280;65496;50.978;16.998;2023-04-03T05:50:08;101161.88;;;21.56;32.72
76605;BME280;65496;50.978;16.998;2023-04-03T05:52:40;101157.19;;;21.56;32.92
76605;BME280;65496;50.978;16.998;2023-04-03T05:55:08;101156.38;;;21.56;32.86
76605;BME280;65496;50.978;16.998;2023-04-03T05:57:34;101158.31;;;21.55;32.70
76605;BME280;65496;50.978;16.998;2023-04-03T06:00:00;101157.97;;;21.57;32.77
76605;BME280;65496;50.978;16.998;2023-04-03T06:02:26;101158.81;;;21.57;32.67
76605;BME280;65496;50.978;16.998;2023-04-03T06:04:52;101160.28;;;21.55;32.77
76605;BME280;65496;50.978;16.998;2023-04-03T06:07:21;101165.13;;;21.58;32.84
76605;BME280;65496;50.978;16.998;2023-04-03T06:09:49;101163.81;;;21.55;32.72
76605;BME280;65496;50.978;16.998;2023-04-03T06:12:17;101159.47;;;21.54;32.71
76605;BME280;65496;50.978;16.998;2023-04-03T06:14:43;101163.19;;;21.58;32.74
76605;BME280;65496;50.978;16.998;2023-04-03T06:17:09;101162.38;;;21.58;33.07
76605;BME280;65496;50.978;16.998;2023-04-03T06:19:36;101162.81;;;21.60;33.39
76605;BME280;65496;50.978;16.998;2023-04-03T06:22:02;101167.19;;;21.61;32.59
76605;BME280;65496;50.978;16.998;2023-04-03T06:24:28;101166.38;;;21.60;33.24
76605;BME280;65496;50.978;16.998;2023-04-03T06:26:54;101171.59;;;21.62;33.64
76605;BME280;65496;50.978;16.998;2023-04-03T06:29:21;101174.34;;;21.62;33.58
76605;BME280;65496;50.978;16.998;2023-04-03T06:31:48;101170.91;;;21.65;33.71
76605;BME280;65496;50.978;16.998;2023-04-03T06:34:14;101174.47;;;21.65;33.86
76605;BME280;65496;50.978;16.998;2023-04-03T06:36:41;101177.69;;;21.67;33.93
76605;BME280;65496;50.978;16.998;2023-04-03T06:39:09;101175.56;;;21.44;32.02
76605;BME280;65496;50.978;16.998;2023-04-03T06:41:38;101177.81;;;21.50;33.20
76605;BME280;65496;50.978;16.998;2023-04-03T06:44:04;101187.34;;;21.53;33.91
76605;BME280;65496;50.978;16.998;2023-04-03T06:46:30;101177.28;;;21.57;33.82
76605;BME280;65496;50.978;16.998;2023-04-03T06:48:57;101180.84;;;21.57;33.85
76605;BME280;65496;50.978;16.998;2023-04-03T06:51:28;101179.72;;;21.58;33.84
76605;BME280;65496;50.978;16.998;2023-04-03T06:53:56;101179.84;;;21.62;33.95
76605;BME280;65496;50.978;16.998;2023-04-03T06:56:23;101186.16;;;21.62;33.82
76605;BME280;65496;50.978;16.998;2023-04-03T06:58:49;101196.84;;;21.64;34.01
76605;BME280;65496;50.978;16.998;2023-04-03T07:01:17;101197.66;;;21.64;34.08
76605;BME280;65496;50.978;16.998;2023-04-03T07:03:45;101194.56;;;21.66;34.41
76605;BME280;65496;50.978;16.998;2023-04-03T07:06:16;101193.41;;;21.67;34.03
76605;BME280;65496;50.978;16.998;2023-04-03T07:08:42;101200.91;;;21.66;33.81
76605;BME280;65496;50.978;16.998;2023-04-03T07:11:09;101202.84;;;21.66;33.95
76605;BME280;65496;50.978;16.998;2023-04-03T07:13:36;101207.06;;;21.63;33.66
76605;BME280;65496;50.978;16.998;2023-04-03T07:16:02;101207.19;;;21.67;33.49
76605;BME280;65496;50.978;16.998;2023-04-03T07:18:29;101199.28;;;21.65;33.66
76605;BME280;65496;50.978;16.998;2023-04-03T07:20:55;101219.03;;;21.67;33.24
76605;BME280;65496;50.978;16.998;2023-04-03T07:23:22;101214.69;;;21.66;33.01
76605;BME280;65496;50.978;16.998;2023-04-03T07:25:49;101217.75;;;21.65;32.63
76605;BME280;65496;50.978;16.998;2023-04-03T07:28:17;101213.38;;;21.64;32.77
76605;BME280;65496;50.978;16.998;2023-04-03T07:30:45;101225.22;;;21.64;33.05
76605;BME280;65496;50.978;16.998;2023-04-03T07:33:13;101220.53;;;21.65;32.67
76605;BME280;65496;50.978;16.998;2023-04-03T07:35:40;101229.91;;;21.64;32.50
76605;BME280;65496;50.978;16.998;2023-04-03T07:38:06;101222.78;;;21.63;32.53
76605;BME280;65496;50.978;16.998;2023-04-03T07:40:33;101223.28;;;21.65;32.26
76605;BME280;65496;50.978;16.998;2023-04-03T07:42:59;101227.66;;;21.66;32.00
76605;BME280;65496;50.978;16.998;2023-04-03T07:45:25;101216.50;;;21.62;32.08
76605;BME280;65496;50.978;16.998;2023-04-03T07:47:51;101223.28;;;21.65;32.07
76605;BME280;65496;50.978;16.998;2023-04-03T07:50:18;101227.66;;;21.66;32.34
76605;BME280;65496;50.978;16.998;2023-04-03T07:52:45;101225.22;;;21.64;31.98
76605;BME280;65496;50.978;16.998;2023-04-03T07:55:11;101226.84;;;21.65;31.63
76605;BME280;65496;50.978;16.998;2023-04-03T07:57:38;101230.41;;;21.66;31.89
76605;BME280;65496;50.978;16.998;2023-04-03T08:00:05;101228.78;;;21.65;31.89
76605;BME280;65496;50.978;16.998;2023-04-03T08:02:31;101232.81;;;21.67;31.79
76605;BME280;65496;50.978;16.998;2023-04-03T08:04:58;101230.41;;;21.66;31.31
76605;BME280;65496;50.978;16.998;2023-04-03T08:07:24;101218.22;;;21.67;31.61
76605;BME280;65496;50.978;16.998;2023-04-03T08:09:51;101236.19;;;20.71;28.95
76605;BME280;65496;50.978;16.998;2023-04-03T08:12:17;101239.84;;;19.89;29.30
76605;BME280;65496;50.978;16.998;2023-04-03T08:14:43;101241.41;;;19.65;29.18
76605;BME280;65496;50.978;16.998;2023-04-03T08:17:09;101240.13;;;19.71;29.85
76605;BME280;65496;50.978;16.998;2023-04-03T08:19:38;101246.81;;;19.95;30.28
76605;BME280;65496;50.978;16.998;2023-04-03T08:22:05;101240.22;;;20.14;29.47
76605;BME280;65496;50.978;16.998;2023-04-03T08:24:32;101241.34;;;20.21;27.96
76605;BME280;65496;50.978;16.998;2023-04-03T08:26:59;101231.63;;;20.24;27.81
76605;BME280;65496;50.978;16.998;2023-04-03T08:29:25;101237.50;;;20.31;27.31
76605;BME280;65496;50.978;16.998;2023-04-03T08:31:51;101237.28;;;20.27;27.02
76605;BME280;65496;50.978;16.998;2023-04-03T08:34:17;101232.94;;;20.26;26.29
76605;BME280;65496;50.978;16.998;2023-04-03T08:36:45;101238.28;;;20.31;26.84
76605;BME280;65496;50.978;16.998;2023-04-03T08:39:12;101235.53;;;20.31;26.19
76605;BME280;65496;50.978;16.998;2023-04-03T08:41:42;101236.69;;;20.30;25.32
76605;BME280;65496;50.978;16.998;2023-04-03T08:49:35;101237.78;;;20.12;25.77
76605;BME280;65496;50.978;16.998;2023-04-03T08:52:09;101227.75;;;20.16;25.72
76605;BME280;65496;50.978;16.998;2023-04-03T08:54:57;101228.41;;;20.13;25.17
76605;BME280;65496;50.978;16.998;2023-04-03T08:57:39;101231.16;;;20.13;25.12
76605;BME280;65496;50.978;16.998;2023-04-03T09:02:57;101230.78;;;19.97;24.56
76605;BME280;65496;50.978;16.998;2023-04-03T09:05:41;101228.06;;;19.97;24.25
76605;BME280;65496;50.978;16.998;2023-04-03T09:08:23;101223.38;;;19.98;24.73
76605;BME280;65496;50.978;16.998;2023-04-03T09:11:16;101225.63;;;19.96;24.22
76605;BME280;65496;50.978;16.998;2023-04-03T09:14:30;101239.38;;;19.96;24.19
76605;BME280;65496;50.978;16.998;2023-04-03T09:16:58;101241.78;;;19.89;23.75
76605;BME280;65496;50.978;16.998;2023-04-03T09:22:18;101234.34;;;19.81;23.26
76605;BME280;65496;50.978;16.998;2023-04-03T09:24:59;101232.84;;;19.75;24.15
76605;BME280;65496;50.978;16.998;2023-04-03T09:27:26;101242.72;;;19.76;23.74
76605;BME280;65496;50.978;16.998;2023-04-03T09:29:55;101234.97;;;19.78;24.08
76605;BME280;65496;50.978;16.998;2023-04-03T09:34:52;101242.06;;;19.70;23.64
76605;BME280;65496;50.978;16.998;2023-04-03T09:40:02;101245.75;;;19.66;23.18
76605;BME280;65496;50.978;16.998;2023-04-03T09:42:31;101244.47;;;19.63;23.54
76605;BME280;65496;50.978;16.998;2023-04-03T09:44:59;101247.19;;;19.63;23.16
76605;BME280;65496;50.978;16.998;2023-04-03T09:47:27;101251.06;;;19.54;22.60
76605;BME280;65496;50.978;16.998;2023-04-03T09:52:35;101239.25;;;19.53;22.36
76605;BME280;65496;50.978;16.998;2023-04-03T09:55:14;101234.41;;;19.50;22.59
76605;BME280;65496;50.978;16.998;2023-04-03T09:57:40;101239.22;;;19.44;22.66
76605;BME280;65496;50.978;16.998;2023-04-03T10:00:20;101236.78;;;19.43;22.90
76605;BME280;65496;50.978;16.998;2023-04-03T10:02:50;101239.69;;;19.46;22.82
76605;BME280;65496;50.978;16.998;2023-04-03T10:05:38;101241.09;;;19.35;22.89
76605;BME280;65496;50.978;16.998;2023-04-03T10:10:43;101233.66;;;19.36;22.91
76605;BME280;65496;50.978;16.998;2023-04-03T10:13:13;101227.03;;;19.37;22.48
76605;BME280;65496;50.978;16.998;2023-04-03T10:15:51;101231.59;;;19.41;22.76
76605;BME280;65496;50.978;16.998;2023-04-03T10:26:57;101235.75;;;19.39;23.07
76605;BME280;65496;50.978;16.998;2023-04-03T10:39:11;101220.31;;;20.00;26.96
76605;BME280;65496;50.978;16.998;2023-04-03T10:49:43;101216.50;;;20.35;26.73
76605;BME280;65496;50.978;16.998;2023-04-03T10:55:52;101224.09;;;20.47;26.26
76605;BME280;65496;50.978;16.998;2023-04-03T10:58:54;101215.66;;;20.52;26.65
76605;BME280;65496;50.978;16.998;2023-04-03T11:01:31;101219.88;;;20.58;26.23
76605;BME280;65496;50.978;16.998;2023-04-03T11:04:00;101213.88;;;20.64;26.33
76605;BME280;65496;50.978;16.998;2023-04-03T11:06:34;101218.72;;;20.67;26.27
76605;BME280;65496;50.978;16.998;2023-04-03T11:09:15;101219.69;;;20.71;26.37
76605;BME280;65496;50.978;16.998;2023-04-03T11:11:44;101212.22;;;20.72;26.40
76605;BME280;65496;50.978;16.998;2023-04-03T11:14:32;101217.22;;;20.78;26.39
76605;BME280;65496;50.978;16.998;2023-04-03T11:17:14;101205.75;;;20.85;26.52
76605;BME280;65496;50.978;16.998;2023-04-03T11:19:50;101209.28;;;20.85;26.62
76605;BME280;65496;50.978;16.998;2023-04-03T11:22:33;101201.97;;;20.89;26.71
76605;BME280;65496;50.978;16.998;2023-04-03T11:27:48;101210.72;;;21.00;26.75
76605;BME280;65496;50.978;16.998;2023-04-03T11:33:03;101206.63;;;21.06;27.32
76605;BME280;65496;50.978;16.998;2023-04-03T11:35:31;101201.28;;;21.10;27.56
76605;BME280;65496;50.978;16.998;2023-04-03T11:38:00;101201.94;;;21.15;27.39
76605;BME280;65496;50.978;16.998;2023-04-03T11:40:31;101206.47;;;21.20;27.18
76605;BME280;65496;50.978;16.998;2023-04-03T11:47:55;101203.31;;;21.38;27.54
76605;BME280;65496;50.978;16.998;2023-04-03T11:53:03;101186.94;;;21.42;27.45
76605;BME280;65496;50.978;16.998;2023-04-03T12:00:49;101190.63;;;21.46;27.12
76605;BME280;65496;50.978;16.998;2023-04-03T12:08:44;101192.72;;;21.49;27.06
76605;BME280;65496;50.978;16.998;2023-04-03T12:16:27;101185.41;;;21.53;27.02
76605;BME280;65496;50.978;16.998;2023-04-03T12:19:27;101191.72;;;21.54;27.15
76605;BME280;65496;50.978;16.998;2023-04-03T12:24:30;101180.84;;;21.57;27.43
76605;BME280;65496;50.978;16.998;2023-04-03T12:40:14;101163.78;;;21.64;27.30
76605;BME280;65496;50.978;16.998;2023-04-03T12:46:03;101174.13;;;21.67;27.35
76605;BME280;65496;50.978;16.998;2023-04-03T12:48:32;101170.22;;;21.68;27.42
76605;BME280;65496;50.978;16.998;2023-04-03T12:51:00;101166.34;;;21.69;27.21
76605;BME280;65496;50.978;16.998;2023-04-03T12:53:28;101162.47;;;21.70;27.37
76605;BME280;65496;50.978;16.998;2023-04-03T12:55:57;101170.38;;;21.71;27.31
76605;BME280;65496;50.978;16.998;2023-04-03T12:58:42;101173.94;;;21.72;27.42
76605;BME280;65496;50.978;16.998;2023-04-03T13:01:17;101165.22;;;21.70;27.54
76605;BME280;65496;50.978;16.998;2023-04-03T13:03:47;101170.03;;;21.73;27.50
76605;BME280;65496;50.978;16.998;2023-04-03T13:06:23;101165.53;;;21.68;27.11
76605;BME280;65496;50.978;16.998;2023-04-03T13:08:55;101166.34;;;21.69;27.34
76605;BME280;65496;50.978;16.998;2023-04-03T13:11:28;101170.22;;;21.68;27.16
76605;BME280;65496;50.978;16.998;2023-04-03T13:14:01;101166.34;;;21.69;27.28
76605;BME280;65496;50.978;16.998;2023-04-03T13:16:29;101173.94;;;21.72;27.19
76605;BME280;65496;50.978;16.998;2023-04-03T13:18:55;101161.78;;;21.73;27.23
76605;BME280;65496;50.978;16.998;2023-04-03T13:23:52;101165.81;;;21.75;27.38
76605;BME280;65496;50.978;16.998;2023-04-03T13:26:21;101159.97;;;21.77;27.33
76605;BME280;65496;50.978;16.998;2023-04-03T13:28:47;101159.16;;;21.76;27.34
76605;BME280;65496;50.978;16.998;2023-04-03T13:31:22;101165.00;;;21.75;27.40
76605;BME280;65496;50.978;16.998;2023-04-03T13:36:38;101171.09;;;21.60;26.37
76605;BME280;65496;50.978;16.998;2023-04-03T13:41:39;101157.63;;;21.88;27.37
76605;BME280;65496;50.978;16.998;2023-04-03T13:44:26;101171.31;;;22.05;27.68
76605;BME280;65496;50.978;16.998;2023-04-03T13:46:55;101164.25;;;22.16;27.98
76605;BME280;65496;50.978;16.998;2023-04-03T13:51:49;101156.53;;;22.42;29.26
76605;BME280;65496;50.978;16.998;2023-04-03T13:54:22;101168.97;;;22.48;29.21
76605;BME280;65496;50.978;16.998;2023-04-03T13:56:54;101165.38;;;22.48;29.43
76605;BME280;65496;50.978;16.998;2023-04-03T13:59:33;101161.25;;;22.42;28.55
76605;BME280;65496;50.978;16.998;2023-04-03T14:04:46;101152.72;;;22.35;28.98
76605;BME280;65496;50.978;16.998;2023-04-03T14:07:15;101155.28;;;22.40;28.60
76605;BME280;65496;50.978;16.998;2023-04-03T14:09:42;101143.88;;;22.41;28.16
76605;BME280;65496;50.978;16.998;2023-04-03T14:12:16;101147.00;;;22.40;27.79
76605;BME280;65496;50.978;16.998;2023-04-03T14:14:44;101163.13;;;22.50;28.53
76605;BME280;65496;50.978;16.998;2023-04-03T14:17:17;101158.53;;;22.54;28.36
76605;BME280;65496;50.978;16.998;2023-04-03T14:19:45;101159.34;;;22.54;28.46
76605;BME280;65496;50.978;16.998;2023-04-03T14:22:30;101163.94;;;22.50;28.87
76605;BME280;65496;50.978;16.998;2023-04-03T14:24:57;101155.66;;;22.50;28.74
76605;BME280;65496;50.978;16.998;2023-04-03T14:27:38;101156.03;;;22.61;28.78
76605;BME280;65496;50.978;16.998;2023-04-03T14:30:08;101166.03;;;22.65;28.52
76605;BME280;65496;50.978;16.998;2023-04-03T14:32:35;101163.59;;;22.64;28.72
76605;BME280;65496;50.978;16.998;2023-04-03T14:35:01;101155.69;;;22.62;28.34
76605;BME280;65496;50.978;16.998;2023-04-03T14:37:29;101149.69;;;22.60;28.79
76605;BME280;65496;50.978;16.998;2023-04-03T14:39:57;101150.81;;;22.59;28.83
76605;BME280;65496;50.978;16.998;2023-04-03T14:42:27;101130.84;;;22.62;28.84
76605;BME280;65496;50.978;16.998;2023-04-03T14:44:53;101144.09;;;22.69;29.16
76605;BME280;65496;50.978;16.998;2023-04-03T14:47:23;101136.13;;;22.67;29.14
76605;BME280;65496;50.978;16.998;2023-04-03T14:49:49;101145.25;;;22.68;29.02
76605;BME280;65496;50.978;16.998;2023-04-03T14:52:23;101147.16;;;22.67;29.01